^^
Station Historical Data
Daily Summary for May 29, 2021 Units:  English    Metric   Both
Daily Weekly Monthly Yearly
  High: Low: Average:
Temperature: 56.7 °F 47.7 °F 52.1 °F
Dew Point: 43.9 °F 33.4 °F 39.2 °F
Humidity: 72% 48% 62%
Wind Speed: 1mph 0mph 0mph
Wind Gust: 1mph - -
Wind- - SE
Pressure: 30.24 in 30.11 in -
Precipitation: 0.00 in    
 
 
Tabular Data for May 29, 2021
Time Temperature Dew Point Pressure Wind Wind Speed Wind Gust Humidity Rainfall Rate (Hourly) solar
00:00 48 °F 36.4 °F 30.13 in Calm     64% 0.00 in 0 W/m2
00:05 48.2 °F 37.4 °F 30.13 in Calm     66% 0.00 in 0 W/m2
00:10 48.2 °F 37 °F 30.13 in Calm     65% 0.00 in 0 W/m2
00:15 48.2 °F 37.4 °F 30.13 in Calm     66% 0.00 in 0 W/m2
00:20 48.2 °F 37.4 °F 30.13 in Calm     66% 0.00 in 0 W/m2
00:25 48.3 °F 36.7 °F 30.13 in Calm     64% 0.00 in 0 W/m2
00:30 48.3 °F 37.8 °F 30.12 in Calm     67% 0.00 in 0 W/m2
00:35 48.4 °F 38.7 °F 30.12 in Calm     69% 0.00 in 0 W/m2
00:40 48.2 °F 38.9 °F 30.13 in Calm     70% 0.00 in 0 W/m2
00:45 48.1 °F 38.8 °F 30.13 in Calm     70% 0.00 in 0 W/m2
00:50 47.9 °F 38.6 °F 30.13 in Calm     70% 0.00 in 0 W/m2
00:55 47.8 °F 38.5 °F 30.13 in Calm     70% 0.00 in 0 W/m2
01:00 47.8 °F 38.8 °F 30.13 in Calm     71% 0.00 in 0 W/m2
01:05 47.7 °F 38.4 °F 30.13 in Calm     70% 0.00 in 0 W/m2
01:10 47.7 °F 39.1 °F 30.13 in Calm     72% 0.00 in 0 W/m2
01:15 47.8 °F 39.2 °F 30.13 in Calm     72% 0.00 in 0 W/m2
01:20 47.7 °F 39.1 °F 30.13 in Calm     72% 0.00 in 0 W/m2
01:25 47.8 °F 39.2 °F 30.13 in Calm     72% 0.00 in 0 W/m2
01:30 47.9 °F 38.6 °F 30.13 in Calm     70% 0.00 in 0 W/m2
01:35 48 °F 38.7 °F 30.12 in Calm     70% 0.00 in 0 W/m2
01:40 48.1 °F 38.4 °F 30.12 in Calm     69% 0.00 in 0 W/m2
01:45 48.2 °F 38.9 °F 30.12 in Calm     70% 0.00 in 0 W/m2
01:50 48.2 °F 38.1 °F 30.12 in Calm     68% 0.00 in 0 W/m2
01:55 48.3 °F 38.2 °F 30.12 in Calm     68% 0.00 in 0 W/m2
02:00 48.4 °F 37.6 °F 30.12 in Calm     66% 0.00 in 0 W/m2
02:05 48.5 °F 37.7 °F 30.12 in Calm     66% 0.00 in 0 W/m2
02:10 48.6 °F 37.7 °F 30.12 in Calm     66% 0.00 in 0 W/m2
02:15 48.6 °F 37.7 °F 30.11 in Calm     66% 0.00 in 0 W/m2
02:20 48.7 °F 37.5 °F 30.12 in Calm     65% 0.00 in 0 W/m2
02:25 48.8 °F 37.6 °F 30.11 in Calm     65% 0.00 in 0 W/m2
02:30 48.9 °F 37.6 °F 30.11 in Calm     65% 0.00 in 0 W/m2
02:35 48.9 °F 37.6 °F 30.11 in Calm     65% 0.00 in 0 W/m2
02:40 49 °F 38.1 °F 30.11 in Calm     66% 0.00 in 0 W/m2
02:45 49 °F 36.9 °F 30.11 in Calm     63% 0.00 in 0 W/m2
02:50 49.2 °F 37.5 °F 30.11 in Calm     64% 0.00 in 0 W/m2
02:55 49.3 °F 38 °F 30.11 in Calm     65% 0.00 in 0 W/m2
03:00 49.2 °F 38.3 °F 30.12 in Calm     66% 0.00 in 0 W/m2
03:05 49.3 °F 38.4 °F 30.12 in Calm     66% 0.00 in 0 W/m2
03:10 49.2 °F 38.7 °F 30.12 in Calm     67% 0.00 in 0 W/m2
03:15 49.2 °F 37.9 °F 30.12 in Calm     65% 0.00 in 0 W/m2
03:20 49.2 °F 38.3 °F 30.11 in Calm     66% 0.00 in 0 W/m2
03:25 49.1 °F 37.4 °F 30.11 in Calm     64% 0.00 in 0 W/m2
03:30 49.2 °F 37.1 °F 30.11 in Calm     63% 0.00 in 0 W/m2
03:35 49.2 °F 37.5 °F 30.11 in Calm     64% 0.00 in 0 W/m2
03:40 49.3 °F 38 °F 30.11 in Calm     65% 0.00 in 0 W/m2
03:45 49.2 °F 37.5 °F 30.11 in Calm     64% 0.00 in 0 W/m2
03:50 49.2 °F 37.5 °F 30.12 in Calm     64% 0.00 in 0 W/m2
03:55 49.2 °F 37.9 °F 30.12 in Calm     65% 0.00 in 0 W/m2
04:00 49.2 °F 37.1 °F 30.12 in Calm     63% 0.00 in 0 W/m2
04:05 49.1 °F 37.4 °F 30.12 in Calm     64% 0.00 in 0 W/m2
04:10 49.1 °F 37.4 °F 30.12 in Calm     64% 0.00 in 0 W/m2
04:15 49.1 °F 37.8 °F 30.12 in Calm     65% 0.00 in 0 W/m2
04:20 49 °F 38.1 °F 30.12 in Calm     66% 0.00 in 0 W/m2
04:25 48.9 °F 38 °F 30.12 in Calm     66% 0.00 in 0 W/m2
04:30 48.9 °F 38 °F 30.12 in Calm     66% 0.00 in 0 W/m2
04:35 48.8 °F 37.9 °F 30.12 in Calm     66% 0.00 in 0 W/m2
04:40 48.7 °F 37.8 °F 30.12 in Calm     66% 0.00 in 0 W/m2
04:45 48.7 °F 38.2 °F 30.13 in Calm     67% 0.00 in 0 W/m2
04:50 48.7 °F 38.2 °F 30.13 in Calm     67% 0.00 in 0 W/m2
04:55 48.7 °F 37.8 °F 30.13 in Calm     66% 0.00 in 0 W/m2
05:00 48.7 °F 38.2 °F 30.13 in Calm     67% 0.00 in 0 W/m2
05:05 48.6 °F 37.7 °F 30.13 in Calm     66% 0.00 in 0 W/m2
05:10 48.6 °F 37.7 °F 30.13 in Calm     66% 0.00 in 0 W/m2
05:15 48.7 °F 37.8 °F 30.14 in Calm     66% 0.00 in 0 W/m2
05:20 48.8 °F 38.3 °F 30.14 in Calm     67% 0.00 in 0 W/m2
05:25 48.7 °F 38.2 °F 30.14 in Calm     67% 0.00 in 0 W/m2
05:30 48.8 °F 38.3 °F 30.14 in Calm     67% 0.00 in 0 W/m2
05:35 48.8 °F 38.3 °F 30.14 in Calm     67% 0.00 in 0 W/m2
05:40 48.8 °F 38.7 °F 30.14 in Calm     68% 0.00 in 0 W/m2
05:45 48.8 °F 39.1 °F 30.15 in Calm     69% 0.00 in 0 W/m2
05:50 48.8 °F 38.7 °F 30.15 in Calm     68% 0.00 in 0 W/m2
05:55 48.7 °F 38.6 °F 30.15 in Calm     68% 0.00 in 5 W/m2
06:00 48.6 °F 38.1 °F 30.15 in Calm     67% 0.00 in 7 W/m2
06:05 48.6 °F 38.1 °F 30.15 in Calm     67% 0.00 in 9 W/m2
06:10 48.6 °F 38.5 °F 30.15 in Calm     68% 0.00 in 11 W/m2
06:15 48.5 °F 38 °F 30.15 in Calm     67% 0.00 in 12 W/m2
06:20 48.6 °F 38.5 °F 30.16 in Calm     68% 0.00 in 14 W/m2
06:25 48.6 °F 38.5 °F 30.16 in Calm     68% 0.00 in 18 W/m2
06:30 48.7 °F 38.6 °F 30.16 in Calm     68% 0.00 in 19 W/m2
06:35 48.7 °F 39 °F 30.16 in Calm     69% 0.00 in 21 W/m2
06:40 48.7 °F 39 °F 30.17 in Calm     69% 0.00 in 23 W/m2
06:45 48.7 °F 39.4 °F 30.17 in Calm     70% 0.00 in 25 W/m2
06:50 48.8 °F 39.4 °F 30.17 in Calm     70% 0.00 in 25 W/m2
06:55 48.8 °F 39.4 °F 30.17 in Calm     70% 0.00 in 28 W/m2
07:00 48.8 °F 39.4 °F 30.17 in Calm     70% 0.00 in 30 W/m2
07:05 48.8 °F 39.1 °F 30.17 in Calm     69% 0.00 in 30 W/m2
07:10 48.9 °F 39.5 °F 30.18 in Calm     70% 0.00 in 32 W/m2
07:15 48.9 °F 39.2 °F 30.18 in Calm     69% 0.00 in 44 W/m2
07:20 49 °F 39.3 °F 30.18 in Calm     69% 0.00 in 33 W/m2
07:25 49.1 °F 39.4 °F 30.18 in Calm     69% 0.00 in 33 W/m2
07:30 49.2 °F 39.1 °F 30.18 in Calm     68% 0.00 in 35 W/m2
07:35 49.3 °F 39.2 °F 30.18 in Calm     68% 0.00 in 37 W/m2
07:40 49.5 °F 39.4 °F 30.19 in Calm     68% 0.00 in 54 W/m2
07:45 49.6 °F 39.5 °F 30.19 in Calm     68% 0.00 in 58 W/m2
07:50 49.6 °F 39.1 °F 30.19 in Calm     67% 0.00 in 51 W/m2
07:55 49.8 °F 39.3 °F 30.19 in Calm     67% 0.00 in 125 W/m2
08:00 49.9 °F 39.8 °F 30.20 in Calm     68% 0.00 in 216 W/m2
08:05 50 °F 39.8 °F 30.19 in Calm     68% 0.00 in 304 W/m2
08:10 50.1 °F 39.6 °F 30.20 in Calm     67% 0.00 in 320 W/m2
08:15 50.1 °F 39.9 °F 30.20 in Calm     68% 0.00 in 334 W/m2
08:20 50.3 °F 40.1 °F 30.20 in Calm     68% 0.00 in 350 W/m2
08:25 50.3 °F 39.8 °F 30.19 in Calm     67% 0.00 in 366 W/m2
08:30 50.5 °F 39.2 °F 30.19 in Calm     65% 0.00 in 378 W/m2
08:35 50.6 °F 40 °F 30.20 in Calm     67% 0.00 in 396 W/m2
08:40 50.6 °F 39.7 °F 30.20 in Calm     66% 0.00 in 410 W/m2
08:45 50.7 °F 40.1 °F 30.20 in Calm     67% 0.00 in 425 W/m2
08:50 50.8 °F 39.8 °F 30.20 in Calm     66% 0.00 in 441 W/m2
08:55 50.9 °F 39.9 °F 30.21 in Calm     66% 0.00 in 455 W/m2
09:00 51.1 °F 40.1 °F 30.21 in Calm     66% 0.00 in 468 W/m2
09:05 51.2 °F 40.6 °F 30.21 in Calm     67% 0.00 in 482 W/m2
09:10 51.3 °F 40.3 °F 30.21 in Calm     66% 0.00 in 497 W/m2
09:15 51.4 °F 40.4 °F 30.22 in Calm     66% 0.00 in 506 W/m2
09:20 51.5 °F 40.9 °F 30.22 in Calm     67% 0.00 in 526 W/m2
09:25 51.5 °F 40.9 °F 30.22 in Calm     67% 0.00 in 538 W/m2
09:30 51.4 °F 40.4 °F 30.22 in Calm     66% 0.00 in 552 W/m2
09:35 51.5 °F 40.5 °F 30.22 in Calm     66% 0.00 in 566 W/m2
09:40 51.5 °F 40.1 °F 30.22 in Calm     65% 0.00 in 580 W/m2
09:45 51.6 °F 40.6 °F 30.22 in Calm     66% 0.00 in 591 W/m2
09:50 51.6 °F 41 °F 30.22 in Calm     67% 0.00 in 605 W/m2
09:55 51.6 °F 41.4 °F 30.22 in Calm     68% 0.00 in 619 W/m2
10:00 51.5 °F 40.5 °F 30.22 in Calm     66% 0.00 in 631 W/m2
10:05 51.6 °F 41 °F 30.22 in Calm     67% 0.00 in 643 W/m2
10:10 51.6 °F 41 °F 30.22 in Calm     67% 0.00 in 657 W/m2
10:15 51.7 °F 41.1 °F 30.22 in Calm     67% 0.00 in 666 W/m2
10:20 51.7 °F 40.7 °F 30.22 in Calm     66% 0.00 in 679 W/m2
10:25 51.8 °F 41.2 °F 30.23 in Calm     67% 0.00 in 693 W/m2
10:30 51.9 °F 40.5 °F 30.23 in Calm     65% 0.00 in 707 W/m2
10:35 52 °F 41 °F 30.23 in Calm     66% 0.00 in 717 W/m2
10:40 52.1 °F 41.1 °F 30.23 in Calm     66% 0.00 in 728 W/m2
10:45 52.3 °F 41.3 °F 30.23 in Calm     66% 0.00 in 738 W/m2
10:50 52.4 °F 41 °F 30.23 in Calm     65% 0.00 in 749 W/m2
10:55 52.5 °F 40.7 °F 30.23 in Calm     64% 0.00 in 759 W/m2
11:00 52.6 °F 41.2 °F 30.24 in Calm     65% 0.00 in 772 W/m2
11:05 52.7 °F 40.9 °F 30.24 in Calm     64% 0.00 in 779 W/m2
11:10 52.8 °F 41 °F 30.24 in Calm     64% 0.00 in 791 W/m2
11:15 52.8 °F 41 °F 30.24 in Calm     64% 0.00 in 800 W/m2
11:20 52.9 °F 40.2 °F 30.24 in Calm     62% 0.00 in 807 W/m2
11:25 53 °F 40.7 °F 30.24 in Calm     63% 0.00 in 819 W/m2
11:30 53 °F 40.3 °F 30.24 in Calm     62% 0.00 in 828 W/m2
11:35 53.1 °F 40.8 °F 30.24 in Calm     63% 0.00 in 837 W/m2
11:40 53.3 °F 41.4 °F 30.24 in Calm     64% 0.00 in 846 W/m2
11:45 53.4 °F 41.5 °F 30.24 in Calm     64% 0.00 in 856 W/m2
11:50 53.7 °F 41.4 °F 30.24 in Calm     63% 0.00 in 861 W/m2
11:55 53.9 °F 42 °F 30.24 in Calm     64% 0.00 in 870 W/m2
12:00 54.1 °F 41.8 °F 30.24 in Calm     63% 0.00 in 877 W/m2
12:05 54.2 °F 41.9 °F 30.24 in Calm     63% 0.00 in 884 W/m2
12:10 54.2 °F 41.5 °F 30.24 in Calm     62% 0.00 in 889 W/m2
12:15 54.2 °F 40.6 °F 30.24 in Calm     60% 0.00 in 893 W/m2
12:20 54.3 °F 41.1 °F 30.24 in Calm     61% 0.00 in 900 W/m2
12:25 54.5 °F 41.7 °F 30.24 in Calm     62% 0.00 in 905 W/m2
12:30 54.8 °F 40.7 °F 30.24 in Calm     59% 0.00 in 909 W/m2
12:35 55.7 °F 42.5 °F 30.24 in Calm     61% 0.00 in 914 W/m2
12:40 55.3 °F 41.6 °F 30.24 in Calm     60% 0.00 in 919 W/m2
12:45 55.1 °F 40.6 °F 30.24 in Calm     58% 0.00 in 923 W/m2
12:50 55.1 °F 41 °F 30.24 in Calm     59% 0.00 in 928 W/m2
12:55 55 °F 41.8 °F 30.24 in Calm     61% 0.00 in 930 W/m2
13:00 55.2 °F 42 °F 30.24 in Calm     61% 0.00 in 935 W/m2
13:05 55.1 °F 41.5 °F 30.24 in Calm     60% 0.00 in 935 W/m2
13:10 55.2 °F 41.5 °F 30.24 in Calm     60% 0.00 in 940 W/m2
13:15 55.3 °F 41.6 °F 30.24 in Calm     60% 0.00 in 942 W/m2
13:20 55.5 °F 41.4 °F 30.24 in Calm     59% 0.00 in 944 W/m2
13:25 55.5 °F 41.8 °F 30.23 in Calm   1 mph 60% 0.00 in 946 W/m2
13:30 55.8 °F 42.1 °F 30.23 in Calm     60% 0.00 in 947 W/m2
13:35 55.8 °F 42.1 °F 30.23 in Calm     60% 0.00 in 947 W/m2
13:40 56 °F 42.3 °F 30.23 in Calm   1 mph 60% 0.00 in 947 W/m2
13:45 56.3 °F 43 °F 30.23 in Calm   1 mph 61% 0.00 in 949 W/m2
13:50 56.4 °F 43.1 °F 30.23 in Calm     61% 0.00 in 946 W/m2
13:55 56.3 °F 42.1 °F 30.23 in Calm     59% 0.00 in 947 W/m2
14:00 56 °F 42.7 °F 30.23 in Calm     61% 0.00 in 946 W/m2
14:05 56 °F 42.7 °F 30.23 in Calm   1 mph 61% 0.00 in 944 W/m2
14:10 55.9 °F 41.8 °F 30.23 in Calm     59% 0.00 in 937 W/m2
14:15 56.2 °F 42.9 °F 30.23 in Calm     61% 0.00 in 939 W/m2
14:20 56.7 °F 43.8 °F 30.23 in Calm     62% 0.00 in 937 W/m2
14:25 56.1 °F 42.8 °F 30.23 in Calm     61% 0.00 in 933 W/m2
14:30 56 °F 43.6 °F 30.23 in Calm   1 mph 63% 0.00 in 930 W/m2
14:35 55.8 °F 43 °F 30.23 in Calm   1 mph 62% 0.00 in 928 W/m2
14:40 55.7 °F 42.5 °F 30.22 in Calm     61% 0.00 in 923 W/m2
14:45 55.9 °F 43.1 °F 30.22 in Calm     62% 0.00 in 919 W/m2
14:50 55.9 °F 43.5 °F 30.23 in Calm     63% 0.00 in 912 W/m2
14:55 55.8 °F 43.4 °F 30.22 in Calm     63% 0.00 in 907 W/m2
15:00 55.9 °F 43.9 °F 30.22 in Calm     64% 0.00 in 902 W/m2
15:05 55.8 °F 43.4 °F 30.22 in Calm     63% 0.00 in 895 W/m2
15:10 55.8 °F 43.4 °F 30.22 in Calm     63% 0.00 in 891 W/m2
15:15 55.8 °F 43.4 °F 30.22 in Calm     63% 0.00 in 884 W/m2
15:20 55.7 °F 43.3 °F 30.22 in Calm   1 mph 63% 0.00 in 877 W/m2
15:25 55.6 °F 42.8 °F 30.22 in Calm   1 mph 62% 0.00 in 868 W/m2
15:30 55.6 °F 42.4 °F 30.22 in Calm   1 mph 61% 0.00 in 865 W/m2
15:35 55.7 °F 42.9 °F 30.22 in Calm   1 mph 62% 0.00 in 854 W/m2
15:40 55.8 °F 42.1 °F 30.22 in Calm     60% 0.00 in 846 W/m2
15:45 55.9 °F 42.2 °F 30.23 in Calm     60% 0.00 in 838 W/m2
15:50 56 °F 42.7 °F 30.22 in Calm     61% 0.00 in 828 W/m2
15:55 56 °F 42.7 °F 30.23 in Calm     61% 0.00 in 819 W/m2
16:00 55.7 °F 41.6 °F 30.23 in Calm   1 mph 59% 0.00 in 809 W/m2
16:05 55.7 °F 42.9 °F 30.22 in Calm   1 mph 62% 0.00 in 800 W/m2
16:10 56 °F 41.9 °F 30.22 in Calm     59% 0.00 in 793 W/m2
16:15 55.6 °F 41 °F 30.22 in Calm     58% 0.00 in 780 W/m2
16:20 55.6 °F 41 °F 30.22 in Calm     58% 0.00 in 770 W/m2
16:25 55.8 °F 41.2 °F 30.22 in Calm     58% 0.00 in 761 W/m2
16:30 56 °F 41 °F 30.22 in Calm     57% 0.00 in 751 W/m2
16:35 56.1 °F 41.5 °F 30.22 in Calm     58% 0.00 in 738 W/m2
16:40 56.1 °F 40.6 °F 30.22 in Calm     56% 0.00 in 726 W/m2
16:45 56 °F 41 °F 30.22 in Calm     57% 0.00 in 715 W/m2
16:50 55.9 °F 40.4 °F 30.22 in Calm     56% 0.00 in 703 W/m2
16:55 55.9 °F 40.9 °F 30.22 in Calm     57% 0.00 in 693 W/m2
17:00 55.9 °F 40.4 °F 30.22 in Calm     56% 0.00 in 679 W/m2
17:05 55.9 °F 40 °F 30.22 in Calm     55% 0.00 in 668 W/m2
17:10 55.9 °F 40.9 °F 30.22 in Calm   1 mph 57% 0.00 in 654 W/m2
17:15 55.9 °F 40.4 °F 30.22 in Calm   1 mph 56% 0.00 in 640 W/m2
17:20 55.8 °F 40.8 °F 30.22 in Calm     57% 0.00 in 628 W/m2
17:25 55.7 °F 40.2 °F 30.22 in Calm     56% 0.00 in 613 W/m2
17:30 55.7 °F 40.2 °F 30.22 in Calm     56% 0.00 in 599 W/m2
17:35 55.5 °F 38.6 °F 30.22 in Calm     53% 0.00 in 585 W/m2
17:40 55.4 °F 39.5 °F 30.22 in Calm     55% 0.00 in 575 W/m2
17:45 55.4 °F 39.5 °F 30.22 in Calm     55% 0.00 in 561 W/m2
17:50 55.3 °F 38.4 °F 30.22 in Calm   1 mph 53% 0.00 in 545 W/m2
17:55 55.2 °F 39.8 °F 30.22 in Calm   1 mph 56% 0.00 in 531 W/m2
18:00 55.1 °F 37.8 °F 30.22 in Calm     52% 0.00 in 515 W/m2
18:05 55 °F 37.7 °F 30.22 in Calm     52% 0.00 in 501 W/m2
18:10 55.1 °F 39.2 °F 30.22 in Calm     55% 0.00 in 487 W/m2
18:15 55.2 °F 37.9 °F 30.22 in Calm     52% 0.00 in 475 W/m2
18:20 55.2 °F 37.9 °F 30.22 in Calm     52% 0.00 in 457 W/m2
18:25 55.2 °F 37.9 °F 30.22 in Calm     52% 0.00 in 443 W/m2
18:30 55.1 °F 38.7 °F 30.22 in Calm     54% 0.00 in 429 W/m2
18:35 55.1 °F 38.3 °F 30.22 in Calm     53% 0.00 in 413 W/m2
18:40 55.1 °F 37.8 °F 30.22 in Calm     52% 0.00 in 396 W/m2
18:45 55.2 °F 37.9 °F 30.22 in Calm     52% 0.00 in 383 W/m2
18:50 55.1 °F 38.7 °F 30.22 in Calm     54% 0.00 in 366 W/m2
18:55 55.1 °F 38.3 °F 30.22 in Calm     53% 0.00 in 352 W/m2
19:00 55 °F 37.7 °F 30.22 in Calm     52% 0.00 in 338 W/m2
19:05 54.8 °F 37 °F 30.21 in Calm     51% 0.00 in 322 W/m2
19:10 54.8 °F 37.5 °F 30.21 in Calm     52% 0.00 in 304 W/m2
19:15 54.9 °F 37.1 °F 30.21 in Calm     51% 0.00 in 290 W/m2
19:20 54.9 °F 38.1 °F 30.21 in Calm     53% 0.00 in 274 W/m2
19:25 54.8 °F 37 °F 30.21 in Calm     51% 0.00 in 260 W/m2
19:30 54.8 °F 36 °F 30.22 in Calm     49% 0.00 in 244 W/m2
19:35 54.7 °F 35.4 °F 30.22 in Calm   1 mph 48% 0.00 in 230 W/m2
19:40 54.6 °F 37.3 °F 30.22 in Calm     52% 0.00 in 214 W/m2
19:45 54.5 °F 35.7 °F 30.22 in Calm     49% 0.00 in 199 W/m2
19:50 54.3 °F 35 °F 30.22 in Calm     48% 0.00 in 183 W/m2
19:55 54.3 °F 35.5 °F 30.22 in Calm     49% 0.00 in 42 W/m2
20:00 54.2 °F 35.4 °F 30.21 in Calm     49% 0.00 in 37 W/m2
20:05 54.1 °F 35.3 °F 30.22 in Calm     49% 0.00 in 35 W/m2
20:10 54 °F 35.8 °F 30.22 in Calm   1 mph 50% 0.00 in 33 W/m2
20:15 53.9 °F 35.7 °F 30.21 in Calm   1 mph 50% 0.00 in 35 W/m2
20:20 53.8 °F 35.6 °F 30.22 in Calm     50% 0.00 in 30 W/m2
20:25 53.7 °F 35.5 °F 30.22 in Calm     50% 0.00 in 54 W/m2
20:30 53.6 °F 34.4 °F 30.22 in Calm     48% 0.00 in 25 W/m2
20:35 53.5 °F 34.8 °F 30.22 in Calm     49% 0.00 in 23 W/m2
20:40 53.4 °F 35.2 °F 30.22 in Calm     50% 0.00 in 19 W/m2
20:45 53.3 °F 35.1 °F 30.22 in Calm     50% 0.00 in 18 W/m2
20:50 53.2 °F 34.5 °F 30.22 in Calm     49% 0.00 in 12 W/m2
20:55 53.1 °F 35.4 °F 30.22 in Calm   1 mph 51% 0.00 in 11 W/m2
21:00 53 °F 34.8 °F 30.22 in East 1 mph 1 mph 50% 0.00 in 9 W/m2
21:05 53 °F 34.3 °F 30.22 in Calm   1 mph 49% 0.00 in 7 W/m2
21:10 52.8 °F 34.7 °F 30.22 in Calm     50% 0.00 in 5 W/m2
21:15 52.8 °F 35.2 °F 30.22 in Calm     51% 0.00 in 0 W/m2
21:20 52.7 °F 35.6 °F 30.22 in Calm     52% 0.00 in 0 W/m2
21:25 52.6 °F 34 °F 30.22 in Calm     49% 0.00 in 0 W/m2
21:30 52.5 °F 33.4 °F 30.22 in Calm     48% 0.00 in 0 W/m2
21:35 52.4 °F 34.8 °F 30.22 in Calm     51% 0.00 in 0 W/m2
21:40 52.4 °F 35.3 °F 30.23 in Calm     52% 0.00 in 0 W/m2
21:45 52.3 °F 34.7 °F 30.23 in Calm     51% 0.00 in 0 W/m2
21:50 52.3 °F 34.7 °F 30.23 in Calm   1 mph 51% 0.00 in 0 W/m2
21:55 52.3 °F 35.2 °F 30.23 in NE 1 mph 1 mph 52% 0.00 in 0 W/m2
22:00 52.3 °F 36.1 °F 30.23 in ESE 1 mph 1 mph 54% 0.00 in 0 W/m2
22:05 52.3 °F 36.1 °F 30.23 in ESE 1 mph 1 mph 54% 0.00 in 0 W/m2
22:10 52.3 °F 36.6 °F 30.23 in NNW 1 mph 1 mph 55% 0.00 in 0 W/m2
22:15 52.3 °F 36.1 °F 30.23 in ESE 1 mph 1 mph 54% 0.00 in 0 W/m2
22:20 52.3 °F 36.6 °F 30.23 in ENE 1 mph 1 mph 55% 0.00 in 0 W/m2
Sand Point, Michigan, USA
Compliments of Weather Underground - 2 mb